Scout — SCOUT — position and weather

sailwx.info

Track history (hours):
 
Tides and Currents Weather Stations Pressure Air Temp Water Temp Dewpoint Dewpoint Depression Visibility Wind Speed Wind Dir Waves Ship Positions

Scout

Last reported at 2017-Nov-17 20:30 UTC. Time now 2017-Nov-24 12:56 UTC.
Position N 32°43' W 117°29'.

Length 13 m.

Type: Pleasure craft. MMSI: 316017359.

Date/timePositionNaut miles runAvg speedWind from/ knotsBaromVisibWave heightAir tempDewpointWater temp
2017-Nov-17 20:30N 32°43' W 117°29'1 0.7
2017-Nov-17 19:31N 32°43' W 117°29'2 3.1
2017-Nov-17 19:01N 32°42' W 117°28'713.7
2017-Nov-17 18:31N 32°49' W 117°30'611.3
2017-Nov-17 18:00N 32°45' W 117°24'11 0.6
2017-Nov-16 23:16N 32°39' W 117°14'416.2
2017-Nov-16 23:00N 32°42' W 117°18'4 7.5
2017-Nov-16 22:30N 32°40' W 117°21'11 4.5
2017-Nov-16 20:00N 32°49' W 117°30'7 3.0
2017-Nov-16 17:30N 32°42' W 117°30'8 7.8
2017-Nov-16 16:30N 32°39' W 117°21'12 0.7
2017-Nov-15 23:00N 32°49' W 117°29'7 3.6
2017-Nov-15 21:01N 32°42' W 117°27'2 4.5
2017-Nov-15 20:30N 32°40' W 117°26'6 5.6
2017-Nov-15 19:31N 32°45' W 117°29'3 1.8
2017-Nov-15 18:00N 32°44' W 117°26'0 0.4
2017-Nov-15 17:30N 32°43' W 117°26'2 0.1
2017-Nov-14 23:01N 32°44' W 117°28'2 1.6
2017-Nov-14 22:00N 32°43' W 117°29'2 1.6
2017-Nov-14 21:00N 32°41' W 117°30'4 7.7
2017-Nov-14 20:30N 32°45' W 117°28'2 3.6
2017-Nov-14 20:00N 32°47' W 117°29'3 3.3
2017-Nov-14 19:00N 32°50' W 117°29'713.6
2017-Nov-14 18:30N 32°43' W 117°27'4 7.9
2017-Nov-14 18:00N 32°40' W 117°27'4 8.1
2017-Nov-14 17:30N 32°40' W 117°23'  
Track history (hours):
 
Tides and Currents Weather Stations Pressure Air Temp Water Temp Dewpoint Dewpoint Depression Visibility Wind Speed Wind Dir Waves Ship Positions

Scout

Last reported at 2017-Nov-17 20:30 UTC. Time now 2017-Nov-24 12:56 UTC.
Position N 32°43' W 117°29'.

Length 13 m.

Type: Pleasure craft. MMSI: 316017359.

Date/timePositionNaut miles runAvg speedWind from/ knotsBaromVisibWave heightAir tempDewpointWater temp
2017-Nov-17 20:30N 32°43' W 117°29'1 0.7
2017-Nov-17 19:31N 32°43' W 117°29'2 3.1
2017-Nov-17 19:01N 32°42' W 117°28'713.7
2017-Nov-17 18:31N 32°49' W 117°30'611.3
2017-Nov-17 18:00N 32°45' W 117°24'11 0.6
2017-Nov-16 23:16N 32°39' W 117°14'416.2
2017-Nov-16 23:00N 32°42' W 117°18'4 7.5
2017-Nov-16 22:30N 32°40' W 117°21'11 4.5
2017-Nov-16 20:00N 32°49' W 117°30'7 3.0
2017-Nov-16 17:30N 32°42' W 117°30'8 7.8
2017-Nov-16 16:30N 32°39' W 117°21'12 0.7
2017-Nov-15 23:00N 32°49' W 117°29'7 3.6
2017-Nov-15 21:01N 32°42' W 117°27'2 4.5
2017-Nov-15 20:30N 32°40' W 117°26'6 5.6
2017-Nov-15 19:31N 32°45' W 117°29'3 1.8
2017-Nov-15 18:00N 32°44' W 117°26'0 0.4
2017-Nov-15 17:30N 32°43' W 117°26'2 0.1
2017-Nov-14 23:01N 32°44' W 117°28'2 1.6
2017-Nov-14 22:00N 32°43' W 117°29'2 1.6
2017-Nov-14 21:00N 32°41' W 117°30'4 7.7
2017-Nov-14 20:30N 32°45' W 117°28'2 3.6
2017-Nov-14 20:00N 32°47' W 117°29'3 3.3
2017-Nov-14 19:00N 32°50' W 117°29'713.6
2017-Nov-14 18:30N 32°43' W 117°27'4 7.9
2017-Nov-14 18:00N 32°40' W 117°27'4 8.1
2017-Nov-14 17:30N 32°40' W 117°23'  

Dump ship's entire track history